Time;durP1;ratioP1;P1;durP2;ratioP2;P2;SDS_P1;SDS_P2;PMS_P1;PMS_P2;Temp;Humidity;BMP_temperature;BMP_pressure;BME280_temperature;BME280_humidity;BME280_pressure;Samples;Min_cycle;Max_cycle;Signal;HPM_P1;HPM_P2
2023/05/30 00:02:25;;;;;;;8.27;5.17;;;;;13.30;96986.00;;;;4970770;28;20223;-81
2023/05/30 00:05:16;;;;;;;7.83;5.00;;;;;13.70;96988.00;;;;4970670;28;20250;-80
2023/05/30 00:08:06;;;;;;;8.00;5.27;;;;;13.40;96977.00;;;;4973387;28;20876;-80
2023/05/30 00:10:55;;;;;;;6.63;4.50;;;;;13.30;96973.00;;;;4975704;23;20204;-70
2023/05/30 00:13:44;;;;;;;8.17;5.07;;;;;13.60;96984.00;;;;5000043;28;20202;-69
2023/05/30 00:16:35;;;;;;;6.67;5.17;;;;;13.70;96979.00;;;;5001128;28;20241;-70
2023/05/30 00:19:24;;;;;;;7.60;4.97;;;;;12.90;96971.00;;;;4991838;28;20219;-69
2023/05/30 00:22:19;;;;;;;9.17;4.83;;;;;12.60;96964.00;;;;4978560;28;20207;-70
2023/05/30 00:25:09;;;;;;;7.20;4.83;;;;;12.90;96964.00;;;;4984660;28;20223;-70
2023/05/30 00:27:58;;;;;;;7.27;4.90;;;;;13.10;96965.00;;;;4983741;28;20589;-68
2023/05/30 00:30:47;;;;;;;10.17;4.70;;;;;13.20;96963.00;;;;4980799;28;20207;-68
2023/05/30 00:33:36;;;;;;;5.93;4.73;;;;;13.20;96964.00;;;;4983826;28;20211;-68
2023/05/30 00:36:25;;;;;;;6.57;4.30;;;;;12.60;96965.00;;;;4989142;28;20202;-69
2023/05/30 00:39:16;;;;;;;7.23;5.00;;;;;12.80;96965.00;;;;4980361;28;20222;-69
2023/05/30 00:42:07;;;;;;;6.87;4.73;;;;;13.20;96963.00;;;;4978663;28;20550;-70
2023/05/30 00:44:56;;;;;;;6.30;4.73;;;;;13.30;96964.00;;;;4983664;28;20212;-70
2023/05/30 00:47:46;;;;;;;6.40;4.87;;;;;13.30;96974.00;;;;4984984;28;20207;-70
2023/05/30 00:50:36;;;;;;;6.00;4.83;;;;;13.10;96973.00;;;;4981930;28;20223;-69
2023/05/30 00:53:26;;;;;;;8.47;4.40;;;;;12.50;96971.00;;;;4978618;28;20204;-69
2023/05/30 00:56:16;;;;;;;5.33;4.00;;;;;12.10;96973.00;;;;4982433;28;20688;-67
2023/05/30 00:59:05;;;;;;;7.43;4.90;;;;;12.20;96974.00;;;;4983267;28;20215;-71
2023/05/30 01:01:55;;;;;;;7.00;4.73;;;;;12.70;96973.00;;;;4977394;28;20225;-70
2023/05/30 01:04:44;;;;;;;10.03;5.07;;;;;12.90;96981.00;;;;4972442;28;20200;-70
2023/05/30 01:07:34;;;;;;;5.40;4.47;;;;;13.00;96980.00;;;;4988286;28;20695;-70
2023/05/30 01:10:23;;;;;;;9.37;5.03;;;;;12.40;96968.00;;;;4977223;28;20223;-69
2023/05/30 01:13:22;;;;;;;7.87;5.00;;;;;11.70;96967.00;;;;4978197;28;20210;-69
2023/05/30 01:16:16;;;;;;;5.43;3.80;;;;;12.00;96974.00;;;;4987158;28;20200;-69
2023/05/30 01:19:17;;;;;;;7.43;4.63;;;;;12.30;96976.00;;;;4981135;28;20615;-70
2023/05/30 01:22:26;;;;;;;7.23;5.13;;;;;12.10;96980.00;;;;4982513;28;20603;-70
2023/05/30 01:25:27;;;;;;;7.07;5.33;;;;;11.70;96985.00;;;;4988257;28;20199;-70
2023/05/30 01:28:21;;;;;;;7.43;5.67;;;;;11.50;96978.00;;;;4988543;28;20203;-69
2023/05/30 01:31:10;;;;;;;6.70;4.60;;;;;11.20;96969.00;;;;4984899;28;20618;-68
2023/05/30 01:33:59;;;;;;;7.33;4.87;;;;;11.30;96974.00;;;;4989044;28;20208;-68
2023/05/30 01:36:48;;;;;;;6.83;4.40;;;;;11.40;96972.00;;;;4980962;28;20206;-70
2023/05/30 01:39:38;;;;;;;6.93;4.57;;;;;11.10;96964.00;;;;4986684;28;20223;-70
2023/05/30 01:42:30;;;;;;;4.80;4.27;;;;;11.00;96978.00;;;;4985560;28;20674;-69
2023/05/30 01:45:24;;;;;;;7.33;4.90;;;;;11.20;96970.00;;;;4990582;28;20594;-68
2023/05/30 01:48:19;;;;;;;6.50;5.00;;;;;11.50;96975.00;;;;4986829;28;20687;-70
2023/05/30 01:51:13;;;;;;;7.30;4.87;;;;;11.80;96972.00;;;;4992418;28;20206;-69
2023/05/30 01:54:04;;;;;;;8.97;5.27;;;;;11.90;96978.00;;;;4987550;28;20207;-69
2023/05/30 01:56:55;;;;;;;5.53;4.20;;;;;12.20;96975.00;;;;4990402;28;20209;-69
2023/05/30 01:59:45;;;;;;;7.90;4.20;;;;;12.40;96975.00;;;;4990150;28;20219;-68
2023/05/30 02:02:35;;;;;;;7.85;4.65;;;;;12.20;96976.00;;;;4985775;28;20203;-70
2023/05/30 02:05:25;;;;;;;6.90;5.23;;;;;11.40;96971.00;;;;4982604;28;20211;-70
2023/05/30 02:08:14;;;;;;;7.33;4.90;;;;;11.10;96970.00;;;;4984975;28;20235;-70
2023/05/30 02:11:03;;;;;;;5.80;4.67;;;;;10.80;96968.00;;;;4980414;28;20587;-67
2023/05/30 02:13:52;;;;;;;5.70;4.93;;;;;10.90;96964.00;;;;4982985;28;20230;-69
2023/05/30 02:16:41;;;;;;;7.27;4.83;;;;;11.10;96962.00;;;;4986905;28;20664;-69
2023/05/30 02:19:32;;;;;;;6.57;4.93;;;;;11.20;96972.00;;;;4981051;28;20218;-69
2023/05/30 02:22:22;;;;;;;5.83;4.50;;;;;10.90;96964.00;;;;4981951;28;20203;-70
2023/05/30 02:25:11;;;;;;;7.07;4.37;;;;;10.90;96969.00;;;;4987868;28;20733;-69
2023/05/30 02:28:00;;;;;;;7.77;4.93;;;;;11.40;96968.00;;;;4987030;28;20242;-70
2023/05/30 02:30:49;;;;;;;10.27;4.87;;;;;11.60;96976.00;;;;4988822;28;20207;-69
2023/05/30 02:33:38;;;;;;;6.67;5.10;;;;;11.80;96966.00;;;;4981098;28;20207;-69
2023/05/30 02:36:28;;;;;;;6.87;4.90;;;;;11.70;96961.00;;;;4982480;28;20196;-69
2023/05/30 02:39:17;;;;;;;6.40;5.27;;;;;11.80;96960.00;;;;4984753;28;20222;-70
2023/05/30 02:42:07;;;;;;;12.80;5.37;;;;;12.00;96970.00;;;;4978811;28;20214;-70
2023/05/30 02:44:56;;;;;;;8.17;4.80;;;;;11.70;96954.00;;;;4981200;28;20207;-70
2023/05/30 02:47:45;;;;;;;6.87;4.77;;;;;11.30;96972.00;;;;4983675;28;20222;-70
2023/05/30 02:50:34;;;;;;;14.13;5.27;;;;;11.10;96968.00;;;;4982803;28;20218;-70
2023/05/30 02:53:25;;;;;;;7.73;4.87;;;;;10.60;96957.00;;;;4982336;28;20205;-68
2023/05/30 02:56:14;;;;;;;8.30;4.73;;;;;10.10;96961.00;;;;4988084;28;20556;-69
2023/05/30 02:59:03;;;;;;;11.67;4.73;;;;;10.10;96968.00;;;;4986043;28;20226;-69
2023/05/30 03:01:52;;;;;;;6.63;4.33;;;;;10.10;96956.00;;;;4985141;28;20206;-68
2023/05/30 03:04:45;;;;;;;7.67;5.87;;;;;10.20;96960.00;;;;4980817;28;20222;-69
2023/05/30 03:07:35;;;;;;;10.73;5.10;;;;;10.60;96963.00;;;;4990149;28;20199;-69
2023/05/30 03:10:25;;;;;;;7.10;4.93;;;;;11.10;96959.00;;;;4986567;28;20223;-69
2023/05/30 03:13:15;;;;;;;7.23;4.93;;;;;10.90;96953.00;;;;4982909;28;20219;-70
2023/05/30 03:16:04;;;;;;;8.97;5.50;;;;;10.90;96954.00;;;;4985186;28;20213;-69
2023/05/30 03:18:53;;;;;;;5.97;4.20;;;;;10.10;96946.00;;;;4979081;28;20222;-69
2023/05/30 03:21:43;;;;;;;6.50;4.60;;;;;10.20;96956.00;;;;4981361;28;20195;-69
2023/05/30 03:24:33;;;;;;;6.07;4.10;;;;;10.80;96963.00;;;;4981983;28;20202;-69
2023/05/30 03:27:23;;;;;;;6.43;4.57;;;;;10.60;96960.00;;;;4980876;28;20935;-70
2023/05/30 03:30:14;;;;;;;8.07;5.90;;;;;11.10;96966.00;;;;4985886;28;20600;-68
2023/05/30 03:33:04;;;;;;;5.30;4.70;;;;;11.30;96966.00;;;;4979214;28;20210;-71
2023/05/30 03:35:53;;;;;;;5.70;4.83;;;;;11.40;96972.00;;;;4986823;28;20211;-70
2023/05/30 03:38:42;;;;;;;7.70;4.57;;;;;11.20;96971.00;;;;4988724;28;20867;-71
2023/05/30 03:41:31;;;;;;;9.27;4.70;;;;;11.00;96970.00;;;;4981762;28;20727;-70
2023/05/30 03:44:22;;;;;;;7.63;4.80;;;;;10.90;96973.00;;;;4980619;28;20206;-70
2023/05/30 03:47:11;;;;;;;6.63;4.80;;;;;10.80;96968.00;;;;4990521;28;20201;-70
2023/05/30 03:50:01;;;;;;;6.50;4.60;;;;;10.50;96949.00;;;;4977347;28;20234;-70
2023/05/30 03:52:50;;;;;;;7.17;5.37;;;;;10.40;96953.00;;;;4982874;28;20210;-68
2023/05/30 03:55:39;;;;;;;6.33;4.73;;;;;10.40;96959.00;;;;4990417;28;20211;-68
2023/05/30 03:58:28;;;;;;;5.57;4.17;;;;;10.10;96959.00;;;;4982802;28;20227;-70
2023/05/30 04:01:19;;;;;;;6.93;4.40;;;;;10.20;96957.00;;;;4982217;28;20681;-70
2023/05/30 04:04:08;;;;;;;9.37;4.47;;;;;10.40;96971.00;;;;4983462;28;20214;-71
2023/05/30 04:06:58;;;;;;;5.80;4.57;;;;;10.90;96971.00;;;;4977994;28;20207;-69
2023/05/30 04:09:47;;;;;;;5.30;4.07;;;;;11.40;96973.00;;;;4985531;28;20229;-70
2023/05/30 04:12:37;;;;;;;5.27;4.23;;;;;11.10;96973.00;;;;4983175;28;20210;-70
2023/05/30 04:15:26;;;;;;;7.20;4.43;;;;;11.10;96971.00;;;;4986857;28;20672;-71
2023/05/30 04:18:16;;;;;;;5.40;3.83;;;;;11.40;96980.00;;;;4974114;28;20227;-70
2023/05/30 04:21:07;;;;;;;8.53;4.63;;;;;11.90;96972.00;;;;4986597;28;20207;-70
2023/05/30 04:23:56;;;;;;;7.80;5.20;;;;;11.90;96982.00;;;;4979505;28;20203;-70
2023/05/30 04:26:48;;;;;;;4.90;4.30;;;;;11.50;96983.00;;;;4987135;28;20213;-69
2023/05/30 04:29:37;;;;;;;7.97;3.97;;;;;11.40;96982.00;;;;4985748;28;20254;-71
2023/05/30 04:32:33;;;;;;;6.23;3.57;;;;;11.30;96985.00;;;;4981838;28;20226;-70
2023/05/30 04:35:24;;;;;;;8.37;5.27;;;;;11.50;96981.00;;;;4982229;28;20195;-70
2023/05/30 04:38:19;;;;;;;5.40;4.37;;;;;11.70;96981.00;;;;4984178;28;20227;-68
2023/05/30 04:41:08;;;;;;;11.77;7.83;;;;;11.60;96984.00;;;;4976510;28;20207;-69
2023/05/30 04:43:59;;;;;;;7.23;5.57;;;;;11.80;96978.00;;;;4985246;28;20203;-71
2023/05/30 04:46:48;;;;;;;7.87;6.03;;;;;12.00;96986.00;;;;4977659;28;20198;-69
2023/05/30 04:49:39;;;;;;;7.77;4.03;;;;;11.90;96988.00;;;;4984722;28;20727;-69
2023/05/30 04:52:30;;;;;;;7.20;5.17;;;;;12.50;96979.00;;;;4984909;28;20199;-69
2023/05/30 04:55:19;;;;;;;6.17;4.57;;;;;12.40;96989.00;;;;4987688;28;20213;-70
2023/05/30 04:58:08;;;;;;;5.37;4.53;;;;;12.40;96984.00;;;;4991112;28;20233;-68
2023/05/30 05:00:58;;;;;;;8.47;4.23;;;;;12.80;96999.00;;;;4988172;28;20210;-69
2023/05/30 05:03:48;;;;;;;5.50;4.17;;;;;13.10;96986.00;;;;4991490;28;20195;-71
2023/05/30 05:06:37;;;;;;;8.57;5.03;;;;;13.10;96987.00;;;;4992692;28;20754;-70
2023/05/30 05:09:27;;;;;;;6.73;4.40;;;;;13.20;96977.00;;;;4992049;28;20241;-70
2023/05/30 05:12:16;;;;;;;5.20;3.70;;;;;13.20;96981.00;;;;4988079;28;20214;-71
2023/05/30 05:15:06;;;;;;;5.80;4.43;;;;;12.90;96974.00;;;;4983732;28;20198;-71
2023/05/30 05:17:56;;;;;;;4.27;3.67;;;;;13.10;96977.00;;;;4988948;28;20237;-69
2023/05/30 05:20:45;;;;;;;5.63;4.40;;;;;13.40;96979.00;;;;4984944;23;20234;-81
2023/05/30 05:23:34;;;;;;;5.53;4.57;;;;;13.60;96975.00;;;;4983785;28;20222;-80
2023/05/30 05:26:25;;;;;;;6.60;4.43;;;;;13.90;96974.00;;;;4990832;28;20198;-79
2023/05/30 05:29:14;;;;;;;6.80;5.07;;;;;14.20;96974.00;;;;4994454;28;20194;-80
2023/05/30 05:32:03;;;;;;;9.43;5.80;;;;;14.60;96979.00;;;;4990573;28;20317;-79
2023/05/30 05:34:53;;;;;;;5.43;4.93;;;;;14.90;96978.00;;;;4994050;28;20234;-80
2023/05/30 05:37:42;;;;;;;9.90;4.50;;;;;15.00;96975.00;;;;4992843;28;20211;-79
2023/05/30 05:40:31;;;;;;;8.70;4.90;;;;;15.00;96987.00;;;;4992433;28;20208;-80
2023/05/30 05:43:21;;;;;;;9.70;4.90;;;;;15.40;96979.00;;;;4983215;28;20237;-79
2023/05/30 05:46:12;;;;;;;7.70;4.93;;;;;15.40;96988.00;;;;4983864;28;20203;-81
2023/05/30 05:49:01;;;;;;;9.17;5.70;;;;;15.60;96982.00;;;;4981095;28;20597;-80
2023/05/30 05:51:50;;;;;;;11.60;4.73;;;;;15.60;96980.00;;;;4986566;28;20206;-80
2023/05/30 05:54:39;;;;;;;13.07;5.67;;;;;16.00;96998.00;;;;4985172;28;20218;-79
2023/05/30 05:57:28;;;;;;;7.20;4.80;;;;;16.30;96992.00;;;;4979812;28;20702;-79
2023/05/30 06:00:19;;;;;;;8.80;5.57;;;;;16.30;96984.00;;;;4984862;28;20211;-80
2023/05/30 06:03:08;;;;;;;11.40;5.27;;;;;16.60;96991.00;;;;4986817;28;20679;-80
2023/05/30 06:05:58;;;;;;;15.60;5.63;;;;;16.90;96990.00;;;;4987046;28;20250;-80
2023/05/30 06:08:47;;;;;;;8.67;5.43;;;;;16.80;96986.00;;;;4984846;28;20206;-79
2023/05/30 06:11:36;;;;;;;8.77;4.93;;;;;17.10;96996.00;;;;4988003;28;20213;-79
2023/05/30 06:14:26;;;;;;;9.83;6.17;;;;;17.20;97001.00;;;;4984218;28;20231;-81
2023/05/30 06:17:17;;;;;;;7.77;4.83;;;;;17.20;96988.00;;;;4980867;28;20198;-81
2023/05/30 06:20:07;;;;;;;7.17;4.93;;;;;18.00;96987.00;;;;4983133;28;20206;-82
2023/05/30 06:22:56;;;;;;;8.13;4.53;;;;;18.20;96992.00;;;;4986046;28;20207;-81
2023/05/30 06:25:46;;;;;;;12.50;5.73;;;;;18.30;96991.00;;;;4982905;28;20204;-80
2023/05/30 06:28:35;;;;;;;9.97;5.40;;;;;18.60;96986.00;;;;4983664;28;20192;-80
2023/05/30 06:31:24;;;;;;;14.53;5.57;;;;;19.30;96986.00;;;;4992237;28;20209;-80
2023/05/30 06:34:15;;;;;;;10.67;5.17;;;;;19.60;96988.00;;;;4983758;28;20273;-80
2023/05/30 06:37:04;;;;;;;15.40;6.03;;;;;19.80;96985.00;;;;4982849;28;20218;-80
2023/05/30 06:39:53;;;;;;;6.77;4.67;;;;;20.30;96986.00;;;;4976960;28;20229;-80
2023/05/30 06:42:42;;;;;;;8.57;4.67;;;;;20.60;96988.00;;;;4982155;28;20664;-79
2023/05/30 06:45:31;;;;;;;8.80;5.07;;;;;20.70;96985.00;;;;4987140;28;20675;-79
2023/05/30 06:48:20;;;;;;;8.80;4.77;;;;;20.90;96998.00;;;;4981603;28;20770;-81
2023/05/30 06:51:12;;;;;;;7.77;4.50;;;;;21.00;96996.00;;;;4986747;28;20218;-80
2023/05/30 06:54:01;;;;;;;8.03;5.37;;;;;21.30;97001.00;;;;4980655;28;20238;-79
2023/05/30 06:56:50;;;;;;;8.73;4.50;;;;;21.50;96989.00;;;;4986595;28;20210;-80
2023/05/30 06:59:39;;;;;;;5.27;4.27;;;;;21.90;96989.00;;;;4980712;28;20216;-79
2023/05/30 07:02:28;;;;;;;9.20;4.20;;;;;22.10;96993.00;;;;4984165;28;20210;-82
2023/05/30 07:05:18;;;;;;;5.63;3.30;;;;;22.40;96990.00;;;;4992083;28;20223;-80
2023/05/30 07:08:08;;;;;;;6.40;3.73;;;;;22.70;96993.00;;;;4982295;28;20206;-79
2023/05/30 07:10:57;;;;;;;9.43;3.90;;;;;23.00;96990.00;;;;4982124;28;20238;-81
2023/05/30 07:13:46;;;;;;;5.27;3.17;;;;;23.20;96998.00;;;;4982893;28;20223;-80
2023/05/30 07:16:35;;;;;;;5.93;3.47;;;;;23.30;96992.00;;;;4989786;28;20210;-80
2023/05/30 07:19:25;;;;;;;5.00;3.07;;;;;23.10;96998.00;;;;4986271;28;20598;-81
2023/05/30 07:22:15;;;;;;;6.87;2.70;;;;;22.60;97000.00;;;;4979734;28;20215;-79
2023/05/30 07:25:06;;;;;;;5.70;3.13;;;;;22.90;96998.00;;;;4979695;28;20219;-79
2023/05/30 07:27:55;;;;;;;7.00;2.97;;;;;22.30;97010.00;;;;4977560;28;20218;-79
2023/05/30 07:30:44;;;;;;;2.73;2.43;;;;;22.60;97010.00;;;;4983950;28;20203;-80
2023/05/30 07:33:33;;;;;;;2.90;2.47;;;;;21.90;97010.00;;;;4983718;28;20226;-79
2023/05/30 07:36:22;;;;;;;4.20;2.80;;;;;22.60;97011.00;;;;4987543;28;20194;-80
2023/05/30 07:39:11;;;;;;;5.23;3.07;;;;;22.70;97015.00;;;;4981766;28;20603;-80
2023/05/30 07:42:02;;;;;;;4.87;3.20;;;;;22.90;97016.00;;;;4982884;28;20205;-80
2023/05/30 07:44:51;;;;;;;4.47;2.63;;;;;22.70;97006.00;;;;4980286;28;20703;-78
2023/05/30 07:47:40;;;;;;;6.90;2.87;;;;;22.70;97012.00;;;;4990032;28;20294;-80
2023/05/30 07:50:30;;;;;;;3.00;2.53;;;;;22.90;97004.00;;;;4992289;28;20296;-80
2023/05/30 07:53:19;;;;;;;3.90;3.07;;;;;23.10;97004.00;;;;4990299;28;20222;-80
2023/05/30 07:56:08;;;;;;;3.53;2.60;;;;;23.20;96996.00;;;;4978765;28;20203;-81
2023/05/30 07:58:58;;;;;;;5.60;2.80;;;;;22.80;97001.00;;;;4982155;28;20231;-79
2023/05/30 08:01:47;;;;;;;4.53;2.73;;;;;23.00;96992.00;;;;4986101;28;20210;-80
2023/05/30 08:04:37;;;;;;;4.00;2.90;;;;;23.10;96996.00;;;;4992291;28;20226;-79
2023/05/30 08:07:26;;;;;;;4.33;2.60;;;;;24.00;96996.00;;;;4985912;28;21222;-80
2023/05/30 08:10:16;;;;;;;4.70;2.83;;;;;24.10;96992.00;;;;4986657;28;20194;-78
2023/05/30 08:13:05;;;;;;;6.50;2.57;;;;;24.60;96992.00;;;;4984063;28;21723;-80
2023/05/30 08:15:55;;;;;;;7.20;2.50;;;;;24.50;96997.00;;;;4988368;28;20593;-80
2023/05/30 08:18:45;;;;;;;8.00;3.20;;;;;24.70;96999.00;;;;4984726;28;20891;-81
2023/05/30 08:21:36;;;;;;;4.87;2.33;;;;;24.20;96986.00;;;;4992154;28;20210;-81
2023/05/30 08:24:28;;;;;;;5.77;2.90;;;;;24.70;96997.00;;;;4983340;28;20226;-79
2023/05/30 08:27:17;;;;;;;3.87;2.87;;;;;24.20;97002.00;;;;4981031;28;20209;-80
2023/05/30 08:30:08;;;;;;;3.60;2.63;;;;;24.10;96990.00;;;;4978006;28;20214;-79
2023/05/30 08:32:58;;;;;;;5.47;3.27;;;;;25.00;96980.00;;;;4986647;28;20211;-79
2023/05/30 08:35:47;;;;;;;2.93;2.63;;;;;25.20;96985.00;;;;4989964;28;20213;-79
2023/05/30 08:38:36;;;;;;;6.03;4.40;;;;;25.70;96992.00;;;;4982399;28;20226;-80
2023/05/30 08:41:26;;;;;;;3.27;2.73;;;;;26.10;96985.00;;;;4990114;28;20199;-80
2023/05/30 08:44:15;;;;;;;4.00;2.60;;;;;26.00;96982.00;;;;4992094;28;20806;-80
2023/05/30 08:47:06;;;;;;;4.47;3.20;;;;;25.70;96970.00;;;;4985597;28;20614;-81
2023/05/30 08:49:56;;;;;;;4.30;2.80;;;;;26.20;96988.00;;;;4981759;28;20718;-80
2023/05/30 08:52:47;;;;;;;3.47;2.27;;;;;25.10;96977.00;;;;4986362;28;20439;-80
2023/05/30 08:55:39;;;;;;;3.07;2.30;;;;;25.50;96973.00;;;;4982209;28;20225;-81
2023/05/30 08:58:31;;;;;;;3.93;2.33;;;;;26.20;96979.00;;;;4979442;28;20215;-80
2023/05/30 09:01:20;;;;;;;5.20;2.77;;;;;26.00;96974.00;;;;4985556;28;20222;-81
2023/05/30 09:04:10;;;;;;;3.20;2.77;;;;;26.90;96977.00;;;;4991108;28;20257;-80
2023/05/30 09:07:01;;;;;;;4.80;2.47;;;;;26.70;96968.00;;;;4989737;28;20470;-81
2023/05/30 09:09:52;;;;;;;5.07;3.10;;;;;26.10;96976.00;;;;4981185;28;20198;-81
2023/05/30 09:12:42;;;;;;;4.57;3.03;;;;;27.30;96976.00;;;;4989830;28;20574;-80
2023/05/30 09:15:31;;;;;;;5.83;2.73;;;;;27.00;96979.00;;;;4989261;28;20218;-80
2023/05/30 09:18:20;;;;;;;4.43;2.87;;;;;26.90;96975.00;;;;4986837;28;20205;-80
2023/05/30 09:21:09;;;;;;;3.33;2.50;;;;;26.90;96980.00;;;;4989063;28;20226;-82
2023/05/30 09:24:04;;;;;;;5.30;2.33;;;;;27.20;96985.00;;;;4986905;28;20238;-80
2023/05/30 09:27:01;;;;;;;4.43;3.00;;;;;27.00;96978.00;;;;4978182;28;20234;-81
2023/05/30 09:29:50;;;;;;;6.17;3.10;;;;;27.40;96984.00;;;;4983845;28;20200;-80
2023/05/30 09:32:39;;;;;;;4.83;2.60;;;;;27.10;96982.00;;;;4986259;28;20215;-80
2023/05/30 09:35:28;;;;;;;2.70;2.23;;;;;26.40;96972.00;;;;4987212;28;20203;-80
2023/05/30 09:38:18;;;;;;;4.63;2.80;;;;;25.80;96960.00;;;;4984847;28;20213;-79
2023/05/30 09:41:09;;;;;;;3.70;2.80;;;;;27.00;96970.00;;;;4983441;28;20226;-79
2023/05/30 09:43:58;;;;;;;5.37;3.10;;;;;27.90;96956.00;;;;4986312;28;20533;-80
2023/05/30 09:46:49;;;;;;;5.03;2.47;;;;;28.10;96961.00;;;;4990631;28;20299;-80
2023/05/30 09:49:41;;;;;;;2.93;1.93;;;;;28.80;96961.00;;;;4993051;28;20211;-80
2023/05/30 09:52:30;;;;;;;4.67;3.07;;;;;27.90;96960.00;;;;4988322;28;20492;-81
2023/05/30 09:55:20;;;;;;;6.97;3.00;;;;;28.50;96956.00;;;;4991895;28;20211;-79
2023/05/30 09:58:19;;;;;;;4.07;2.70;;;;;29.70;96962.00;;;;4983056;28;20208;-80
2023/05/30 10:01:17;;;;;;;4.27;2.97;;;;;29.50;96968.00;;;;4986205;28;20225;-80
2023/05/30 10:04:16;;;;;;;6.80;3.20;;;;;30.20;96954.00;;;;4989859;28;20243;-82
2023/05/30 10:07:06;;;;;;;4.17;2.57;;;;;29.00;96952.00;;;;4985125;28;20210;-79
2023/05/30 10:09:56;;;;;;;10.77;3.20;;;;;29.00;96955.00;;;;4989745;28;20228;-80
2023/05/30 10:12:46;;;;;;;3.63;2.83;;;;;29.30;96967.00;;;;4994579;28;20210;-81
2023/05/30 10:15:37;;;;;;;3.60;3.20;;;;;28.70;96960.00;;;;4985775;28;20209;-82
2023/05/30 10:18:27;;;;;;;4.50;3.03;;;;;27.20;96952.00;;;;4995124;28;20217;-81
2023/05/30 10:21:16;;;;;;;6.77;3.23;;;;;28.40;96955.00;;;;4985488;28;20230;-81
2023/05/30 10:24:06;;;;;;;3.03;2.47;;;;;29.20;96946.00;;;;4987603;28;20225;-82
2023/05/30 10:26:56;;;;;;;5.10;2.93;;;;;29.10;96931.00;;;;4990816;28;20212;-81
2023/05/30 10:29:48;;;;;;;3.37;2.67;;;;;29.80;96928.00;;;;4984893;28;20200;-82
2023/05/30 10:32:42;;;;;;;5.80;2.70;;;;;30.40;96924.00;;;;4994431;28;20248;-82
2023/05/30 10:35:31;;;;;;;3.40;2.60;;;;;31.10;96921.00;;;;4993032;28;20216;-82
2023/05/30 10:38:23;;;;;;;5.77;2.70;;;;;30.80;96920.00;;;;4988944;28;20249;-81
2023/05/30 10:41:24;;;;;;;3.73;2.47;;;;;30.30;96918.00;;;;4990705;28;20253;-80
2023/05/30 10:44:17;;;;;;;3.10;2.60;;;;;30.30;96911.00;;;;4977593;28;20241;-82
2023/05/30 10:47:20;;;;;;;3.07;2.47;;;;;29.10;96911.00;;;;4982787;28;20205;-82
2023/05/30 10:50:15;;;;;;;5.33;2.73;;;;;30.20;96906.00;;;;4979989;28;20630;-82
2023/05/30 10:53:14;;;;;;;4.03;2.40;;;;;31.40;96903.00;;;;4981080;28;20217;-82
2023/05/30 10:56:03;;;;;;;4.10;3.10;;;;;31.70;96905.00;;;;4982896;28;20220;-82
2023/05/30 10:58:54;;;;;;;2.80;2.50;;;;;32.00;96933.00;;;;4977545;28;20225;-82
2023/05/30 11:02:00;;;;;;;5.80;2.90;;;;;31.80;96939.00;;;;4982907;28;20193;-81
2023/05/30 11:04:51;;;;;;;5.83;3.13;;;;;31.60;96919.00;;;;4980124;28;20233;-81
2023/05/30 11:07:43;;;;;;;3.87;2.40;;;;;31.50;96935.00;;;;4982619;28;20594;-82
2023/05/30 11:10:33;;;;;;;3.20;2.90;;;;;30.80;96938.00;;;;4985275;28;20230;-82
2023/05/30 11:13:22;;;;;;;4.87;2.47;;;;;30.50;96946.00;;;;4980684;28;20232;-82
2023/05/30 11:18:41;;;;;;;4.33;3.20;;;;;29.90;96948.00;;;;4989566;28;20287;-69
2023/05/30 11:21:56;;;;;;;2.97;2.50;;;;;29.50;96946.00;;;;5005970;28;20208;-69
2023/05/30 11:24:47;;;;;;;3.90;2.67;;;;;29.50;96949.00;;;;5009380;28;20205;-70
2023/05/30 11:27:36;;;;;;;3.47;2.70;;;;;29.40;96942.00;;;;5010107;28;20218;-69
2023/05/30 11:30:25;;;;;;;10.83;2.67;;;;;29.10;96948.00;;;;5012849;28;20247;-69
2023/05/30 11:33:15;;;;;;;3.47;3.00;;;;;29.20;96939.00;;;;5006988;28;20294;-70
2023/05/30 11:36:06;;;;;;;5.03;3.20;;;;;29.10;96939.00;;;;5007685;28;20199;-70
2023/05/30 11:38:55;;;;;;;10.95;2.70;;;;;28.80;96936.00;;;;5006827;28;20207;-70
2023/05/30 11:41:46;;;;;;;6.47;3.23;;;;;28.90;96942.00;;;;5002305;28;20195;-70
2023/05/30 11:44:35;;;;;;;6.13;3.87;;;;;28.90;96942.00;;;;5007298;28;20257;-69
2023/05/30 11:50:20;;;;;;;2.80;2.53;;;;;28.70;96934.00;;;;4922710;29;20218;-78
2023/05/30 11:53:13;;;;;;;4.73;3.50;;;;;29.10;96931.00;;;;4923712;29;20209;-81
2023/05/30 11:56:02;;;;;;;3.97;3.17;;;;;29.10;96935.00;;;;4918501;29;20358;-80
2023/05/30 11:58:53;;;;;;;6.67;3.63;;;;;29.10;96935.00;;;;4911571;29;20206;-79
2023/05/30 12:01:42;;;;;;;2.77;2.50;;;;;29.20;96905.00;;;;4954380;23;20229;-84
2023/05/30 12:04:32;;;;;;;3.57;2.90;;;;;28.70;96941.00;;;;4982027;28;20209;-86
2023/05/30 12:07:24;;;;;;;6.73;2.80;;;;;28.00;96941.00;;;;4977879;28;20208;-85
2023/05/30 12:10:13;;;;;;;3.20;2.83;;;;;27.80;96926.00;;;;4986282;28;20206;-84
2023/05/30 12:13:02;;;;;;;4.50;3.43;;;;;28.00;96929.00;;;;4986149;28;20591;-83
2023/05/30 12:15:53;;;;;;;3.67;2.67;;;;;28.30;96918.00;;;;4987605;28;20199;-85
2023/05/30 12:18:42;;;;;;;7.83;3.63;;;;;27.30;96920.00;;;;4985314;28;20237;-85
2023/05/30 12:21:36;;;;;;;4.60;4.07;;;;;27.70;96948.00;;;;4987369;28;20229;-83
2023/05/30 12:24:25;;;;;;;4.00;3.03;;;;;27.00;96942.00;;;;4983525;28;20212;-85
2023/05/30 12:27:18;;;;;;;4.23;3.07;;;;;26.70;96949.00;;;;4983418;28;20702;-85
2023/05/30 12:30:14;;;;;;;5.33;3.50;;;;;27.60;96957.00;;;;4982661;28;20791;-83
2023/05/30 12:33:15;;;;;;;4.43;3.27;;;;;28.70;96928.00;;;;4984427;28;20224;-83
2023/05/30 12:36:05;;;;;;;4.93;3.00;;;;;29.30;96950.00;;;;4992610;28;20226;-87
2023/05/30 12:38:56;;;;;;;5.93;2.97;;;;;29.30;96942.00;;;;4988235;28;20229;-84
2023/05/30 12:41:45;;;;;;;6.37;3.13;;;;;30.40;96936.00;;;;4985509;28;20216;-83
2023/05/30 12:44:44;;;;;;;3.97;3.50;;;;;30.70;96904.00;;;;4983539;28;20213;-84
2023/05/30 12:47:35;;;;;;;4.77;2.83;;;;;32.10;96896.00;;;;4986474;28;20674;-85
2023/05/30 12:50:26;;;;;;;3.27;2.77;;;;;32.90;96903.00;;;;4988702;28;20198;-83
2023/05/30 12:53:15;;;;;;;5.87;3.60;;;;;29.60;96900.00;;;;4990918;28;20231;-86
2023/05/30 12:56:04;;;;;;;4.37;3.10;;;;;29.50;96900.00;;;;4982310;28;20207;-85
2023/05/30 12:58:54;;;;;;;5.67;2.90;;;;;30.80;96914.00;;;;4982378;28;20754;-85
2023/05/30 13:01:43;;;;;;;5.57;2.93;;;;;32.30;96916.00;;;;4983242;28;20342;-84
2023/05/30 13:04:32;;;;;;;8.38;3.42;;;;;32.00;96920.00;;;;4983166;28;20645;-83
2023/05/30 13:07:22;;;;;;;5.95;3.20;;;;;32.20;96960.00;;;;4988731;28;20212;-84
2023/05/30 13:10:12;;;;;;;5.17;3.40;;;;;31.10;96946.00;;;;4994202;28;20219;-85
2023/05/30 13:13:01;;;;;;;6.10;2.92;;;;;31.20;96910.00;;;;4989720;28;20634;-85
2023/05/30 13:15:52;;;;;;;3.97;3.15;;;;;31.20;96906.00;;;;4995264;28;20271;-85
2023/05/30 13:18:41;;;;;;;11.45;3.60;;;;;31.50;96946.00;;;;4997201;28;20232;-86
2023/05/30 13:21:30;;;;;;;3.53;2.75;;;;;31.70;96899.00;;;;4991019;28;20208;-82
2023/05/30 13:24:20;;;;;;;4.78;2.90;;;;;32.30;96919.00;;;;4998307;28;20250;-83
2023/05/30 13:27:10;;;;;;;5.68;3.47;;;;;32.30;96949.00;;;;4992851;28;20672;-84
2023/05/30 13:29:59;;;;;;;5.38;3.58;;;;;30.90;96956.00;;;;4993527;28;20215;-86
2023/05/30 13:32:49;;;;;;;4.25;3.30;;;;;30.50;96946.00;;;;4993851;28;20231;-83
2023/05/30 13:35:38;;;;;;;4.22;2.95;;;;;30.40;96944.00;;;;4990255;28;20249;-83
2023/05/30 13:38:28;;;;;;;6.25;3.53;;;;;30.40;96904.00;;;;4998217;28;20259;-86
2023/05/30 13:41:19;;;;;;;6.57;3.60;;;;;31.30;96917.00;;;;4997646;28;20209;-84
2023/05/30 13:44:08;;;;;;;3.80;3.25;;;;;30.10;96898.00;;;;4984704;28;20218;-84
2023/05/30 13:46:57;;;;;;;5.22;2.80;;;;;30.60;96883.00;;;;4994916;28;20207;-83
2023/05/30 13:49:47;;;;;;;5.95;3.35;;;;;32.00;96887.00;;;;4991348;28;20206;-84
2023/05/30 13:52:36;;;;;;;5.38;4.65;;;;;30.70;96889.00;;;;4988990;28;20224;-85
2023/05/30 13:55:29;;;;;;;6.50;3.22;;;;;29.70;96934.00;;;;4999041;28;20230;-86
2023/05/30 13:58:19;;;;;;;4.87;2.80;;;;;29.20;96937.00;;;;4987953;28;20229;-84
2023/05/30 14:01:09;;;;;;;4.10;3.13;;;;;28.30;96928.00;;;;4992151;28;20224;-85
2023/05/30 14:03:58;;;;;;;5.23;3.33;;;;;27.90;96924.00;;;;4991780;28;20214;-85
2023/05/30 14:06:50;;;;;;;5.53;2.97;;;;;28.60;96928.00;;;;4991108;28;20200;-84
2023/05/30 14:09:40;;;;;;;2.83;2.50;;;;;28.20;96924.00;;;;4994189;28;20253;-87
2023/05/30 14:12:29;;;;;;;3.17;2.87;;;;;28.30;96927.00;;;;4986974;28;20237;-85
2023/05/30 14:15:19;;;;;;;6.80;3.40;;;;;28.00;96929.00;;;;4983894;28;20195;-84
2023/05/30 14:18:08;;;;;;;4.97;3.23;;;;;26.80;96914.00;;;;4996111;28;20234;-85